Time;durP1;ratioP1;P1;durP2;ratioP2;P2;SDS_P1;SDS_P2;PMS_P1;PMS_P2;Temp;Humidity;BMP_temperature;BMP_pressure;BME280_temperature;BME280_humidity;BME280_pressure;Samples;Min_cycle;Max_cycle;Signal;HPM_P1;HPM_P2
2023/04/07 00:00:29;;;;;;;0.40;0.40;;;6.00;97.10;;;;;;5031088;28;25058;-84
2023/04/07 00:02:55;;;;;;;0.40;0.40;;;6.00;97.60;;;;;;5044971;28;20156;-84
2023/04/07 00:05:21;;;;;;;0.40;0.40;;;5.70;98.10;;;;;;5031787;28;20459;-84
2023/04/07 00:07:47;;;;;;;0.40;0.40;;;6.00;97.20;;;;;;5047381;28;20844;-84
2023/04/07 00:10:13;;;;;;;0.40;0.40;;;5.90;98.00;;;;;;5027221;28;20198;-84
2023/04/07 00:12:38;;;;;;;0.40;0.40;;;5.80;98.40;;;;;;5031516;28;25081;-85
2023/04/07 00:15:04;;;;;;;0.40;0.40;;;5.80;98.10;;;;;;5043322;28;25083;-84
2023/04/07 00:17:29;;;;;;;0.40;0.40;;;5.90;97.60;;;;;;5025623;28;25088;-85
2023/04/07 00:19:55;;;;;;;0.40;0.40;;;5.80;98.20;;;;;;5025811;28;20455;-84
2023/04/07 00:22:21;;;;;;;0.30;0.30;;;5.80;97.80;;;;;;5029063;28;20202;-84
2023/04/07 00:24:46;;;;;;;0.30;0.30;;;5.80;98.00;;;;;;5047487;28;20162;-84
2023/04/07 00:27:12;;;;;;;0.40;0.40;;;5.80;98.00;;;;;;5046868;28;20256;-84
2023/04/07 00:29:37;;;;;;;0.40;0.40;;;5.80;98.00;;;;;;5049109;28;25064;-84
2023/04/07 00:32:03;;;;;;;0.40;0.40;;;5.80;98.10;;;;;;5030774;28;20152;-84
2023/04/07 00:34:28;;;;;;;0.40;0.40;;;5.70;98.70;;;;;;5045113;28;20880;-84
2023/04/07 00:36:54;;;;;;;0.40;0.40;;;5.60;98.00;;;;;;5026783;28;20148;-84
2023/04/07 00:39:20;;;;;;;0.40;0.40;;;5.70;98.10;;;;;;5028523;28;20661;-84
2023/04/07 00:41:46;;;;;;;0.30;0.30;;;5.70;98.20;;;;;;5047472;28;25070;-84
2023/04/07 00:44:12;;;;;;;0.40;0.40;;;5.80;98.00;;;;;;5028257;28;20464;-84
2023/04/07 00:46:38;;;;;;;0.40;0.40;;;5.70;98.10;;;;;;5029703;28;25158;-85
2023/04/07 00:49:05;;;;;;;0.40;0.40;;;5.60;98.50;;;;;;5048564;28;25095;-84
2023/04/07 00:51:31;;;;;;;0.40;0.40;;;5.60;98.80;;;;;;5026656;28;20831;-83
2023/04/07 00:53:57;;;;;;;0.30;0.30;;;5.60;98.50;;;;;;5041647;28;25122;-84
2023/04/07 00:56:22;;;;;;;0.40;0.40;;;5.60;98.20;;;;;;5028522;28;20491;-84
2023/04/07 00:58:48;;;;;;;0.40;0.40;;;5.70;98.40;;;;;;5028162;28;20275;-84
2023/04/07 01:01:29;;;;;;;0.40;0.40;;;5.60;98.40;;;;;;5046829;28;20616;-84
2023/04/07 01:04:06;;;;;;;0.40;0.40;;;5.60;98.30;;;;;;5049884;28;20167;-84
2023/04/07 01:06:37;;;;;;;0.30;0.30;;;5.60;98.40;;;;;;5045524;28;25099;-84
2023/04/07 01:09:24;;;;;;;0.40;0.40;;;5.60;98.40;;;;;;5048412;28;20402;-84
2023/04/07 01:11:58;;;;;;;0.40;0.40;;;5.50;98.60;;;;;;5044731;28;20418;-85
2023/04/07 01:14:26;;;;;;;0.40;0.40;;;5.40;98.60;;;;;;5030093;28;25176;-84
2023/04/07 01:16:56;;;;;;;0.40;0.40;;;5.40;99.30;;;;;;5047575;28;20452;-84
2023/04/07 01:19:45;;;;;;;0.40;0.40;;;5.40;99.60;;;;;;5047674;28;25198;-84
2023/04/07 01:22:17;;;;;;;0.40;0.40;;;5.40;99.40;;;;;;5047135;28;20402;-84
2023/04/07 01:24:51;;;;;;;0.40;0.40;;;5.50;98.90;;;;;;5033197;28;25106;-84
2023/04/07 01:27:47;;;;;;;0.40;0.40;;;5.40;99.80;;;;;;5047004;28;25127;-85
2023/04/07 01:30:16;;;;;;;0.40;0.40;;;5.30;99.60;;;;;;5026347;28;25094;-84
2023/04/07 01:32:45;;;;;;;0.40;0.40;;;5.30;99.90;;;;;;5047882;28;25107;-84
2023/04/07 01:35:12;;;;;;;0.50;0.50;;;5.30;99.90;;;;;;5041976;28;25122;-84
2023/04/07 01:37:39;;;;;;;0.40;0.40;;;5.30;99.90;;;;;;5047694;28;20449;-84
2023/04/07 01:40:07;;;;;;;0.40;0.40;;;5.20;99.90;;;;;;5046677;28;25111;-84
2023/04/07 01:42:34;;;;;;;0.30;0.30;;;5.20;99.90;;;;;;5035361;28;20453;-84
2023/04/07 01:45:00;;;;;;;0.40;0.40;;;5.30;99.90;;;;;;5047559;28;21029;-85
2023/04/07 01:47:29;;;;;;;0.40;0.40;;;5.10;99.90;;;;;;5048581;28;20447;-84
2023/04/07 01:49:57;;;;;;;0.40;0.40;;;5.20;99.90;;;;;;5028654;28;25109;-85
2023/04/07 01:52:25;;;;;;;0.40;0.40;;;5.20;99.90;;;;;;5048331;28;20857;-84
2023/04/07 01:54:50;;;;;;;0.30;0.30;;;5.00;99.90;;;;;;5027323;28;20403;-84
2023/04/07 01:57:16;;;;;;;0.40;0.40;;;5.00;99.90;;;;;;5042882;28;25113;-84
2023/04/07 01:59:41;;;;;;;0.40;0.40;;;5.00;99.90;;;;;;5047693;28;20144;-84
2023/04/07 02:02:07;;;;;;;0.40;0.40;;;4.80;99.90;;;;;;5050016;28;20152;-84
2023/04/07 02:04:53;;;;;;;0.40;0.40;;;4.90;99.90;;;;;;5033241;28;20685;-84
2023/04/07 02:07:29;;;;;;;0.40;0.40;;;5.00;99.90;;;;;;5034910;28;20281;-84
2023/04/07 02:09:59;;;;;;;0.40;0.40;;;5.00;99.90;;;;;;5047475;28;20402;-84
2023/04/07 02:12:27;;;;;;;0.40;0.40;;;5.10;99.90;;;;;;5025438;28;25204;-84
2023/04/07 02:14:55;;;;;;;0.33;0.33;;;5.00;99.90;;;;;;5037985;28;25130;-84
2023/04/07 02:17:23;;;;;;;0.40;0.40;;;5.00;99.90;;;;;;5030778;28;25101;-84
2023/04/07 02:19:50;;;;;;;0.40;0.40;;;4.80;99.90;;;;;;5033111;28;20909;-84
2023/04/07 02:22:16;;;;;;;0.40;0.40;;;4.80;99.90;;;;;;5051678;28;25162;-83
2023/04/07 02:24:42;;;;;;;0.40;0.40;;;4.80;99.90;;;;;;5049280;28;20414;-84
2023/04/07 02:27:08;;;;;;;0.40;0.40;;;4.60;99.90;;;;;;5050777;28;20414;-84
2023/04/07 02:29:33;;;;;;;0.40;0.40;;;4.90;99.90;;;;;;5033926;28;20533;-84
2023/04/07 02:31:59;;;;;;;0.40;0.40;;;4.90;99.90;;;;;;5029409;28;20655;-84
2023/04/07 02:34:25;;;;;;;0.40;0.40;;;4.80;99.90;;;;;;5040128;28;25134;-84
2023/04/07 02:36:50;;;;;;;0.33;0.33;;;4.80;99.90;;;;;;5050678;28;25067;-84
2023/04/07 02:39:16;;;;;;;0.40;0.40;;;4.70;99.90;;;;;;5049812;28;25114;-84
2023/04/07 02:41:41;;;;;;;0.40;0.40;;;4.70;99.90;;;;;;5032740;28;20173;-84
2023/04/07 02:44:07;;;;;;;0.30;0.30;;;4.80;99.90;;;;;;5047612;28;25064;-84
2023/04/07 02:46:32;;;;;;;0.50;0.50;;;4.80;99.90;;;;;;5046349;28;20254;-84
2023/04/07 02:48:58;;;;;;;0.40;0.40;;;4.80;99.90;;;;;;5052277;28;25077;-84
2023/04/07 02:51:24;;;;;;;0.37;0.37;;;4.60;99.90;;;;;;5049979;28;25069;-84
2023/04/07 02:53:49;;;;;;;0.40;0.40;;;4.50;99.90;;;;;;5050696;28;25128;-84
2023/04/07 02:56:15;;;;;;;0.40;0.40;;;4.50;99.90;;;;;;5050689;28;25136;-84
2023/04/07 02:58:41;;;;;;;0.40;0.40;;;4.40;99.90;;;;;;5051079;28;20186;-84
2023/04/07 03:01:06;;;;;;;0.47;0.47;;;4.40;99.90;;;;;;5047710;28;25099;-84
2023/04/07 03:03:32;;;;;;;0.40;0.40;;;4.50;99.90;;;;;;5049052;28;20186;-83
2023/04/07 03:05:57;;;;;;;0.40;0.40;;;4.30;99.90;;;;;;5050500;28;20163;-84
2023/04/07 03:08:23;;;;;;;0.40;0.40;;;4.30;99.90;;;;;;5032999;28;25053;-84
2023/04/07 03:10:48;;;;;;;0.40;0.40;;;4.40;99.90;;;;;;5028311;28;20529;-84
2023/04/07 03:13:17;;;;;;;0.43;0.43;;;4.40;99.90;;;;;;5029468;28;25114;-84
2023/04/07 03:15:43;;;;;;;0.37;0.37;;;4.30;99.90;;;;;;5049424;28;25066;-84
2023/04/07 03:18:10;;;;;;;0.40;0.40;;;4.20;99.90;;;;;;5032351;28;20905;-83
2023/04/07 03:20:35;;;;;;;0.40;0.40;;;4.10;99.90;;;;;;5046627;28;25075;-83
2023/04/07 03:23:01;;;;;;;0.50;0.50;;;4.20;99.90;;;;;;5049843;28;25093;-84
2023/04/07 03:25:27;;;;;;;0.50;0.50;;;4.10;99.90;;;;;;5049055;28;25156;-84
2023/04/07 03:27:52;;;;;;;0.40;0.40;;;4.20;99.90;;;;;;5029257;28;25111;-84
2023/04/07 03:30:18;;;;;;;0.40;0.40;;;4.20;99.90;;;;;;5028913;28;25079;-84
2023/04/07 03:32:43;;;;;;;0.40;0.40;;;4.20;99.90;;;;;;5051034;28;25093;-84
2023/04/07 03:35:09;;;;;;;0.40;0.40;;;4.10;99.90;;;;;;5046909;28;25048;-84
2023/04/07 03:37:35;;;;;;;0.40;0.40;;;4.00;99.90;;;;;;5037977;28;25109;-84
2023/04/07 03:40:01;;;;;;;0.40;0.40;;;4.00;99.90;;;;;;5044910;28;25144;-84
2023/04/07 03:42:26;;;;;;;0.40;0.40;;;3.80;99.90;;;;;;5024820;28;25107;-84
2023/04/07 03:44:52;;;;;;;0.40;0.40;;;3.70;99.90;;;;;;5039658;28;20279;-84
2023/04/07 03:47:17;;;;;;;0.50;0.50;;;3.80;99.90;;;;;;5049058;28;25106;-84
2023/04/07 03:49:43;;;;;;;0.40;0.40;;;3.80;99.90;;;;;;5050324;28;25077;-83
2023/04/07 03:52:09;;;;;;;0.50;0.50;;;3.80;99.90;;;;;;5032782;28;25061;-83
2023/04/07 03:54:34;;;;;;;0.40;0.40;;;4.00;99.90;;;;;;5027268;28;25065;-84
2023/04/07 03:57:01;;;;;;;0.40;0.40;;;4.00;99.90;;;;;;5047796;28;20625;-83
2023/04/07 03:59:26;;;;;;;0.50;0.50;;;4.00;99.90;;;;;;5032684;28;25076;-84
2023/04/07 04:01:52;;;;;;;0.40;0.40;;;4.00;99.90;;;;;;5048016;28;25186;-84
2023/04/07 04:04:18;;;;;;;0.40;0.40;;;4.00;99.90;;;;;;5031114;28;25097;-84
2023/04/07 04:06:43;;;;;;;0.40;0.40;;;3.90;99.90;;;;;;5048918;28;25144;-84
2023/04/07 04:09:09;;;;;;;0.50;0.50;;;3.80;99.90;;;;;;5049862;28;25059;-83
2023/04/07 04:11:35;;;;;;;0.50;0.50;;;3.70;99.90;;;;;;5028403;28;20535;-84
2023/04/07 04:14:01;;;;;;;0.40;0.40;;;3.80;99.90;;;;;;5031729;28;25076;-84
2023/04/07 04:16:26;;;;;;;0.40;0.40;;;3.70;99.90;;;;;;5050576;28;25097;-84
2023/04/07 04:18:52;;;;;;;0.40;0.40;;;3.70;99.90;;;;;;5049990;28;25153;-84
2023/04/07 04:21:17;;;;;;;0.30;0.30;;;3.50;99.90;;;;;;5050190;28;25173;-83
2023/04/07 04:23:43;;;;;;;0.50;0.50;;;3.50;99.90;;;;;;5029580;28;25137;-83
2023/04/07 04:26:08;;;;;;;0.50;0.50;;;3.50;99.90;;;;;;5046117;28;20148;-84
2023/04/07 04:28:34;;;;;;;0.40;0.40;;;3.40;99.90;;;;;;5043666;28;25121;-84
2023/04/07 04:31:00;;;;;;;0.50;0.50;;;3.30;99.90;;;;;;5025346;28;25079;-84
2023/04/07 04:33:25;;;;;;;0.50;0.50;;;3.40;99.90;;;;;;5030217;28;25130;-83
2023/04/07 04:35:51;;;;;;;0.40;0.40;;;3.50;99.90;;;;;;5044415;28;20200;-83
2023/04/07 04:38:16;;;;;;;0.50;0.50;;;3.60;99.90;;;;;;5041475;28;25091;-83
2023/04/07 04:40:42;;;;;;;0.40;0.40;;;3.80;99.90;;;;;;5043092;28;25124;-83
2023/04/07 04:43:08;;;;;;;0.40;0.40;;;3.70;99.90;;;;;;5041301;28;25082;-84
2023/04/07 04:45:34;;;;;;;0.40;0.40;;;3.80;99.90;;;;;;5043277;28;20187;-84
2023/04/07 04:48:00;;;;;;;0.40;0.40;;;3.80;99.90;;;;;;5040088;28;25114;-84
2023/04/07 04:50:25;;;;;;;0.50;0.50;;;3.70;99.90;;;;;;5026645;28;25103;-84
2023/04/07 04:52:51;;;;;;;0.50;0.50;;;3.80;99.90;;;;;;5046105;28;25099;-84
2023/04/07 04:55:17;;;;;;;0.50;0.50;;;3.70;99.90;;;;;;5042988;28;25148;-84
2023/04/07 04:57:42;;;;;;;0.50;0.50;;;3.60;99.90;;;;;;5044613;28;25045;-83
2023/04/07 05:00:08;;;;;;;0.40;0.40;;;3.70;99.90;;;;;;5042703;28;25135;-83
2023/04/07 05:02:34;;;;;;;0.40;0.40;;;3.70;99.90;;;;;;5018528;28;25069;-83
2023/04/07 05:05:00;;;;;;;0.40;0.40;;;3.80;99.90;;;;;;5029885;28;25095;-84
2023/04/07 05:07:25;;;;;;;0.50;0.50;;;3.70;99.90;;;;;;5022409;28;25087;-83
2023/04/07 05:09:51;;;;;;;0.40;0.40;;;3.80;99.90;;;;;;5028317;28;20151;-83
2023/04/07 05:12:16;;;;;;;0.50;0.50;;;3.90;99.90;;;;;;5040926;28;20147;-83
2023/04/07 05:14:42;;;;;;;0.47;0.47;;;3.90;99.90;;;;;;5020856;28;25069;-82
2023/04/07 05:17:07;;;;;;;0.50;0.50;;;3.90;99.90;;;;;;5042377;28;25069;-82
2023/04/07 05:19:33;;;;;;;0.50;0.50;;;3.80;99.90;;;;;;5029518;28;25143;-82
2023/04/07 05:21:58;;;;;;;0.40;0.40;;;3.80;99.90;;;;;;5023772;28;25079;-82
2023/04/07 05:24:27;;;;;;;0.40;0.40;;;3.80;99.90;;;;;;5039124;28;25061;-83
2023/04/07 05:26:53;;;;;;;0.40;0.40;;;3.80;99.90;;;;;;5047180;28;20156;-84
2023/04/07 05:29:18;;;;;;;0.33;0.33;;;3.80;99.90;;;;;;5045930;28;25115;-83
2023/04/07 05:31:44;;;;;;;0.50;0.50;;;3.80;99.90;;;;;;5024221;28;25059;-84
2023/04/07 05:34:09;;;;;;;0.40;0.40;;;3.90;99.90;;;;;;5039828;28;20604;-82
2023/04/07 05:36:35;;;;;;;0.50;0.50;;;3.90;99.90;;;;;;5043353;28;20800;-82
2023/04/07 05:39:01;;;;;;;0.40;0.40;;;4.00;99.90;;;;;;5042739;28;20644;-85
2023/04/07 05:41:27;;;;;;;0.50;0.50;;;4.00;99.90;;;;;;5026399;28;25061;-82
2023/04/07 05:43:52;;;;;;;0.40;0.40;;;4.10;99.90;;;;;;5027349;28;25048;-85
2023/04/07 05:46:18;;;;;;;0.50;0.50;;;4.20;99.90;;;;;;5034845;28;20449;-85
2023/04/07 05:48:43;;;;;;;0.40;0.40;;;4.30;99.90;;;;;;5015156;28;20561;-83
2023/04/07 05:51:09;;;;;;;0.40;0.40;;;4.40;99.90;;;;;;5009522;28;25072;-85
2023/04/07 05:53:34;;;;;;;0.40;0.40;;;4.40;99.90;;;;;;5014740;28;25138;-85
2023/04/07 05:56:00;;;;;;;0.40;0.40;;;4.50;99.90;;;;;;5026076;28;25075;-85
2023/04/07 05:58:26;;;;;;;0.40;0.40;;;4.60;99.90;;;;;;5025140;28;25067;-85
2023/04/07 06:00:52;;;;;;;0.50;0.50;;;4.60;99.90;;;;;;5030978;28;20140;-85
2023/04/07 06:03:18;;;;;;;0.50;0.50;;;4.60;99.90;;;;;;5019096;28;26232;-85
2023/04/07 06:05:45;;;;;;;0.40;0.40;;;4.80;99.90;;;;;;5023307;28;25061;-85
2023/04/07 06:08:11;;;;;;;0.40;0.40;;;4.80;99.90;;;;;;5027952;28;25064;-83
2023/04/07 06:10:36;;;;;;;0.40;0.40;;;5.00;99.90;;;;;;5027313;28;25105;-86
2023/04/07 06:13:02;;;;;;;0.47;0.47;;;4.90;99.90;;;;;;5023568;28;20206;-85
2023/04/07 06:15:27;;;;;;;0.40;0.40;;;5.00;99.90;;;;;;5031953;28;25088;-85
2023/04/07 06:17:53;;;;;;;0.40;0.40;;;5.10;99.90;;;;;;5040093;28;20226;-85
2023/04/07 06:20:20;;;;;;;0.40;0.40;;;5.20;99.90;;;;;;5024505;28;20273;-83
2023/04/07 06:22:46;;;;;;;0.40;0.40;;;5.20;99.90;;;;;;5010828;28;25088;-85
2023/04/07 06:25:11;;;;;;;0.30;0.30;;;5.40;99.90;;;;;;5024731;28;25217;-86
2023/04/07 06:27:37;;;;;;;0.40;0.40;;;5.40;99.90;;;;;;5029011;28;20602;-88
2023/04/07 06:30:03;;;;;;;0.30;0.30;;;5.50;99.90;;;;;;5005760;28;25122;-87
2023/04/07 06:32:29;;;;;;;0.30;0.30;;;5.80;99.90;;;;;;5026552;28;25068;-85
2023/04/07 06:34:55;;;;;;;0.40;0.40;;;6.10;99.90;;;;;;5018082;28;20466;-86
2023/04/07 06:37:23;;;;;;;0.40;0.40;;;6.40;99.90;;;;;;5013740;28;20619;-86
2023/04/07 06:39:49;;;;;;;0.30;0.30;;;6.30;99.90;;;;;;5008365;28;20483;-85
2023/04/07 06:42:14;;;;;;;0.30;0.30;;;6.20;99.90;;;;;;5000980;28;20401;-86
2023/04/07 06:44:40;;;;;;;0.37;0.37;;;6.20;99.90;;;;;;5035667;28;25065;-85
2023/04/07 06:47:05;;;;;;;0.40;0.40;;;6.30;99.90;;;;;;5050187;28;20194;-87
2023/04/07 06:49:31;;;;;;;0.30;0.30;;;6.50;99.90;;;;;;5052228;28;20192;-87
2023/04/07 06:51:56;;;;;;;0.30;0.30;;;6.50;99.90;;;;;;5040456;28;20149;-86
2023/04/07 06:54:22;;;;;;;0.40;0.40;;;6.60;99.90;;;;;;5028438;28;20661;-85
2023/04/07 06:56:47;;;;;;;0.30;0.30;;;6.50;99.90;;;;;;5027127;28;20148;-84
2023/04/07 06:59:13;;;;;;;0.30;0.30;;;6.60;99.90;;;;;;5013322;28;20204;-85
2023/04/07 07:01:38;;;;;;;0.30;0.30;;;6.70;99.90;;;;;;5022469;28;20214;-86
2023/04/07 07:04:07;;;;;;;0.30;0.30;;;6.70;99.90;;;;;;5026256;28;20158;-85
2023/04/07 07:06:32;;;;;;;0.30;0.30;;;6.90;99.90;;;;;;5042099;28;20186;-86
2023/04/07 07:08:59;;;;;;;0.30;0.30;;;7.00;99.90;;;;;;5020564;28;20467;-86
2023/04/07 07:11:25;;;;;;;0.30;0.30;;;7.10;99.90;;;;;;5010565;28;20153;-86
2023/04/07 07:13:50;;;;;;;0.30;0.30;;;7.00;99.90;;;;;;5010936;28;20461;-86
2023/04/07 07:16:16;;;;;;;0.30;0.30;;;7.20;99.90;;;;;;5008098;28;20685;-86
2023/04/07 07:18:41;;;;;;;0.30;0.30;;;7.40;99.90;;;;;;5007242;28;20265;-87
2023/04/07 07:21:07;;;;;;;0.30;0.30;;;7.50;99.90;;;;;;5023724;28;20191;-87
2023/04/07 07:23:33;;;;;;;0.30;0.30;;;7.50;99.90;;;;;;5012676;28;20195;-89
2023/04/07 07:25:59;;;;;;;0.30;0.30;;;7.50;99.90;;;;;;5014564;28;20463;-89
2023/04/07 07:28:25;;;;;;;0.30;0.30;;;7.70;99.90;;;;;;5027894;28;20206;-89
2023/04/07 07:30:50;;;;;;;0.30;0.30;;;7.60;99.90;;;;;;5008596;28;20323;-90
2023/04/07 07:33:16;;;;;;;0.30;0.30;;;7.70;99.90;;;;;;5004676;28;20422;-87
2023/04/07 07:35:41;;;;;;;0.30;0.30;;;7.80;99.90;;;;;;5025081;28;20517;-87
2023/04/07 07:38:07;;;;;;;0.30;0.30;;;8.00;99.70;;;;;;5011491;28;20711;-86
2023/04/07 07:40:33;;;;;;;0.30;0.30;;;8.00;99.90;;;;;;5026807;28;20206;-86
2023/04/07 07:42:59;;;;;;;0.30;0.30;;;8.10;99.50;;;;;;5011912;28;20173;-85
2023/04/07 07:45:25;;;;;;;0.40;0.40;;;8.00;99.20;;;;;;5019625;28;20207;-88
2023/04/07 07:47:50;;;;;;;0.30;0.30;;;8.10;98.80;;;;;;5051517;28;20415;-89
2023/04/07 07:50:16;;;;;;;0.30;0.30;;;8.50;99.50;;;;;;5034377;28;20690;-86
2023/04/07 07:52:42;;;;;;;0.30;0.30;;;8.50;99.00;;;;;;5049433;28;20875;-86
2023/04/07 07:55:08;;;;;;;0.30;0.30;;;8.50;98.70;;;;;;5044408;28;20164;-86
2023/04/07 07:57:33;;;;;;;0.30;0.30;;;8.80;97.90;;;;;;5040093;28;20272;-88
2023/04/07 07:59:59;;;;;;;0.30;0.30;;;8.70;96.90;;;;;;5030420;28;20515;-89
2023/04/07 08:02:29;;;;;;;0.20;0.20;;;8.90;98.40;;;;;;5033609;28;20195;-86
2023/04/07 08:04:55;;;;;;;0.30;0.30;;;9.20;97.20;;;;;;5066039;28;20170;-87
2023/04/07 08:07:21;;;;;;;0.30;0.30;;;9.30;96.10;;;;;;5032461;28;20399;-89
2023/04/07 08:09:47;;;;;;;0.20;0.20;;;9.50;97.80;;;;;;5049549;28;20476;-88
2023/04/07 08:12:12;;;;;;;0.20;0.20;;;9.60;97.30;;;;;;5032665;28;20544;-88
2023/04/07 08:14:38;;;;;;;0.27;0.27;;;9.70;97.60;;;;;;5031083;28;20767;-90
2023/04/07 08:17:04;;;;;;;0.20;0.20;;;9.70;97.30;;;;;;5045894;28;20600;-88
2023/04/07 08:19:29;;;;;;;0.20;0.20;;;9.90;97.20;;;;;;5029624;28;20275;-87
2023/04/07 08:21:55;;;;;;;0.20;0.20;;;9.90;96.80;;;;;;5035192;28;20414;-95
2023/04/07 08:24:21;;;;;;;0.20;0.20;;;9.90;96.90;;;;;;5049316;28;25133;-88
2023/04/07 08:26:46;;;;;;;0.20;0.20;;;10.10;96.30;;;;;;5026583;28;20153;-86
2023/04/07 08:29:12;;;;;;;0.20;0.20;;;10.30;95.30;;;;;;5041100;28;20575;-86
2023/04/07 08:31:37;;;;;;;0.20;0.20;;;10.30;95.90;;;;;;5026865;28;20742;-86
2023/04/07 08:34:03;;;;;;;0.20;0.20;;;10.50;95.30;;;;;;5033206;28;20306;-86
2023/04/07 08:36:29;;;;;;;0.20;0.20;;;10.50;95.90;;;;;;5028703;28;20160;-85
2023/04/07 08:38:55;;;;;;;0.20;0.20;;;10.60;95.70;;;;;;5024753;28;20242;-87
2023/04/07 08:41:29;;;;;;;0.23;0.23;;;10.70;92.90;;;;;;5049817;28;20447;-86
2023/04/07 08:43:56;;;;;;;0.20;0.20;;;10.80;93.00;;;;;;5028353;28;20168;-87
2023/04/07 08:46:24;;;;;;;0.20;0.20;;;10.70;90.80;;;;;;5046361;28;20441;-86
2023/04/07 08:48:51;;;;;;;0.20;0.20;;;10.30;89.60;;;;;;5027767;28;20522;-87
2023/04/07 08:51:26;;;;;;;0.20;0.20;;;10.30;90.80;;;;;;5027767;28;20837;-85
2023/04/07 08:53:53;;;;;;;0.20;0.20;;;10.30;89.30;;;;;;5048609;28;20419;-86
2023/04/07 08:56:20;;;;;;;0.20;0.20;;;10.30;87.50;;;;;;5030271;28;20443;-85
2023/04/07 08:58:47;;;;;;;0.20;0.20;;;10.40;86.30;;;;;;5030361;28;25091;-86
2023/04/07 09:01:14;;;;;;;0.20;0.20;;;10.30;88.00;;;;;;5044816;28;21002;-86
2023/04/07 09:03:41;;;;;;;0.20;0.20;;;10.70;91.30;;;;;;5031191;28;20440;-85
2023/04/07 09:06:09;;;;;;;0.20;0.20;;;10.80;91.50;;;;;;5047278;28;20482;-86
2023/04/07 09:08:35;;;;;;;0.20;0.20;;;11.00;90.50;;;;;;5043995;28;20414;-84
2023/04/07 09:11:01;;;;;;;0.20;0.20;;;10.80;89.20;;;;;;5027781;28;20461;-84
2023/04/07 09:13:26;;;;;;;0.20;0.20;;;11.00;92.00;;;;;;5028077;28;20636;-86
2023/04/07 09:15:52;;;;;;;0.20;0.20;;;11.00;93.10;;;;;;5031765;28;20407;-86
2023/04/07 09:18:18;;;;;;;0.20;0.20;;;11.60;93.20;;;;;;5046608;28;20253;-86
2023/04/07 09:20:57;;;;;;;0.20;0.20;;;11.90;93.70;;;;;;5023716;28;20251;-86
2023/04/07 09:23:27;;;;;;;0.20;0.20;;;12.10;92.20;;;;;;5043177;28;20402;-85
2023/04/07 09:25:53;;;;;;;0.20;0.20;;;12.40;93.60;;;;;;5024704;28;20414;-86
2023/04/07 09:28:18;;;;;;;0.20;0.20;;;12.50;92.60;;;;;;5028413;28;20536;-86
2023/04/07 09:30:52;;;;;;;0.20;0.20;;;12.90;92.70;;;;;;5030445;28;20647;-86
2023/04/07 09:33:29;;;;;;;0.10;0.10;;;12.60;93.40;;;;;;5030941;28;20693;-86
2023/04/07 09:35:55;;;;;;;0.20;0.20;;;12.50;94.20;;;;;;5045848;28;20468;-85
2023/04/07 09:38:20;;;;;;;0.10;0.10;;;12.40;94.10;;;;;;5028978;28;20447;-86
2023/04/07 09:40:47;;;;;;;0.10;0.10;;;12.20;94.50;;;;;;5024915;28;20977;-86
2023/04/07 09:43:17;;;;;;;0.20;0.20;;;12.10;93.80;;;;;;5027422;28;25157;-87
2023/04/07 09:45:43;;;;;;;0.10;0.10;;;12.40;94.40;;;;;;5041162;28;25091;-86
2023/04/07 09:48:19;;;;;;;0.20;0.20;;;12.60;93.50;;;;;;5028737;28;25086;-87
2023/04/07 09:50:48;;;;;;;0.10;0.10;;;12.30;93.30;;;;;;5040424;28;20421;-86
2023/04/07 09:53:14;;;;;;;0.10;0.10;;;12.00;95.10;;;;;;5046479;28;21931;-86
2023/04/07 09:55:41;;;;;;;0.10;0.10;;;12.30;96.20;;;;;;5047494;28;20495;-85
2023/04/07 09:58:07;;;;;;;0.20;0.20;;;12.50;95.60;;;;;;5029723;28;25101;-87
2023/04/07 10:00:34;;;;;;;0.10;0.10;;;12.70;96.80;;;;;;5028863;28;20898;-86
2023/04/07 10:03:00;;;;;;;0.10;0.10;;;12.80;96.00;;;;;;5028535;28;20459;-85
2023/04/07 10:05:27;;;;;;;0.10;0.10;;;;;;;;;;5045564;28;20422;-87
2023/04/07 10:07:53;;;;;;;0.10;0.10;;;;;;;;;;5029597;28;20461;-85
2023/04/07 10:10:19;;;;;;;0.20;0.20;;;;;;;;;;5047009;28;25111;-86
2023/04/07 10:12:45;;;;;;;0.10;0.10;;;;;;;;;;5027045;28;25086;-86
2023/04/07 10:15:14;;;;;;;0.10;0.10;;;14.20;99.90;;;;;;5052247;28;25103;-85
2023/04/07 10:17:44;;;;;;;0.10;0.10;;;14.40;99.90;;;;;;5025963;28;20441;-87
2023/04/07 10:20:10;;;;;;;0.10;0.10;;;14.80;99.90;;;;;;5029041;28;25118;-87
2023/04/07 10:22:37;;;;;;;0.10;0.10;;;14.90;99.90;;;;;;5031625;28;20807;-92
2023/04/07 10:25:10;;;;;;;0.10;0.10;;;14.30;99.90;;;;;;5053737;28;25110;-95
2023/04/07 10:27:41;;;;;;;0.10;0.10;;;;;;;;;;5055695;28;20410;-93
2023/04/07 10:30:14;;;;;;;0.10;0.10;;;15.10;99.90;;;;;;5054690;28;20492;-92
2023/04/07 10:32:47;;;;;;;0.10;0.10;;;14.60;99.90;;;;;;5041145;28;20947;-92
2023/04/07 10:35:13;;;;;;;0.10;0.10;;;14.10;99.90;;;;;;5048729;28;20603;-94
2023/04/07 10:37:39;;;;;;;0.10;0.10;;;14.40;99.90;;;;;;5038138;28;25121;-93
2023/04/07 10:40:26;;;;;;;0.10;0.10;;;14.70;99.90;;;;;;5037301;28;20190;-91
2023/04/07 10:42:52;;;;;;;0.10;0.10;;;14.90;99.90;;;;;;5053742;28;20232;-92
2023/04/07 10:45:38;;;;;;;0.10;0.10;;;;;;;;;;5044341;28;20884;-91
2023/04/07 10:48:03;;;;;;;0.10;0.10;;;15.60;99.90;;;;;;5017076;28;20264;-94
2023/04/07 10:50:29;;;;;;;0.10;0.10;;;15.70;99.90;;;;;;5018981;28;20446;-93
2023/04/07 10:53:14;;;;;;;0.10;0.10;;;15.50;99.90;;;;;;5012892;28;20539;-91
2023/04/07 10:55:43;;;;;;;0.10;0.10;;;15.30;99.90;;;;;;5035461;28;20222;-92
2023/04/07 10:58:23;;;;;;;0.10;0.10;;;15.10;92.90;;;;;;5010185;28;20434;-93
2023/04/07 11:01:09;;;;;;;0.10;0.10;;;;;;;;;;5012629;28;20448;-91
2023/04/07 11:03:36;;;;;;;0.10;0.10;;;;;;;;;;5021562;28;20454;-95
2023/04/07 11:06:09;;;;;;;0.10;0.10;;;16.10;99.90;;;;;;5033947;28;20445;-95
2023/04/07 11:08:35;;;;;;;0.10;0.10;;;;;;;;;;5016217;28;20977;-93
2023/04/07 11:11:02;;;;;;;0.10;0.10;;;14.30;99.90;;;;;;5030447;28;20445;-91
2023/04/07 11:13:27;;;;;;;0.10;0.10;;;15.00;99.90;;;;;;5014924;28;20997;-90
2023/04/07 11:15:54;;;;;;;0.10;0.10;;;;;;;;;;5011304;28;20403;-93
2023/04/07 11:18:22;;;;;;;0.10;0.10;;;16.30;99.90;;;;;;5030145;28;20227;-90
2023/04/07 11:20:51;;;;;;;0.10;0.00;;;16.50;97.60;;;;;;5013823;28;20474;-94
2023/04/07 11:23:18;;;;;;;0.10;0.10;;;15.90;93.40;;;;;;5028399;28;25160;-92
2023/04/07 11:25:47;;;;;;;0.10;0.00;;;15.90;93.40;;;;;;5016318;28;25113;-90
2023/04/07 11:28:14;;;;;;;0.10;0.00;;;15.70;93.80;;;;;;5002256;28;20528;-90
2023/04/07 11:30:48;;;;;;;0.10;0.00;;;16.00;93.80;;;;;;5039825;28;20406;-93
2023/04/07 11:33:20;;;;;;;0.10;0.00;;;16.50;96.10;;;;;;5048012;28;20397;-93
2023/04/07 11:35:50;;;;;;;0.10;0.00;;;;;;;;;;5016124;28;20794;-91
2023/04/07 11:38:17;;;;;;;0.10;0.00;;;;;;;;;;5026962;28;20967;-91
2023/04/07 11:40:43;;;;;;;0.00;0.00;;;;;;;;;;5016853;28;20998;-92
2023/04/07 11:43:25;;;;;;;0.00;0.00;;;17.00;99.90;;;;;;5017590;28;20442;-93
2023/04/07 11:46:05;;;;;;;0.00;0.00;;;16.70;98.50;;;;;;5035333;28;20547;-96
2023/04/07 11:48:33;;;;;;;0.00;0.00;;;16.50;99.90;;;;;;5047076;28;20436;-96
2023/04/07 11:50:59;;;;;;;0.00;0.00;;;17.00;98.80;;;;;;5048681;28;20456;-96
2023/04/07 11:53:26;;;;;;;0.00;0.00;;;;;;;;;;5063773;28;20383;-96
2023/04/07 11:56:03;;;;;;;0.00;0.00;;;17.60;95.70;;;;;;5041649;28;20453;-96
2023/04/07 11:58:28;;;;;;;0.10;0.00;;;17.80;99.90;;;;;;5040247;28;20467;-96
2023/04/07 12:00:55;;;;;;;0.10;0.00;;;17.50;99.90;;;;;;5038137;28;20468;-96
2023/04/07 12:03:22;;;;;;;0.10;0.00;;;17.30;98.20;;;;;;5063357;28;20570;-95
2023/04/07 12:05:48;;;;;;;0.10;0.00;;;;;;;;;;5037731;28;20488;-96
2023/04/07 12:08:15;;;;;;;0.10;0.00;;;16.70;98.70;;;;;;5044194;28;20388;-96
2023/04/07 12:10:41;;;;;;;0.10;0.00;;;;;;;;;;5057222;28;20390;-95
2023/04/07 12:13:08;;;;;;;0.10;0.00;;;16.60;99.90;;;;;;5043623;28;20619;-96
2023/04/07 12:15:35;;;;;;;0.10;0.00;;;16.50;99.90;;;;;;5037030;28;20498;-96
2023/04/07 12:18:02;;;;;;;0.10;0.00;;;16.70;99.90;;;;;;5043684;28;20435;-94
2023/04/07 12:20:27;;;;;;;0.10;0.00;;;17.00;98.10;;;;;;5033215;28;20906;-94
2023/04/07 12:22:53;;;;;;;0.10;0.00;;;17.30;99.00;;;;;;5035636;28;20443;-94
2023/04/07 12:25:19;;;;;;;0.10;0.00;;;17.60;98.20;;;;;;5050353;28;20157;-96
2023/04/07 12:27:45;;;;;;;0.10;0.00;;;17.80;99.90;;;;;;5035808;28;20193;-95
2023/04/07 12:30:12;;;;;;;0.10;0.00;;;17.90;99.10;;;;;;5034048;28;20140;-95
2023/04/07 12:32:37;;;;;;;0.10;0.00;;;17.90;99.00;;;;;;5039198;28;20440;-95
2023/04/07 12:35:04;;;;;;;0.10;0.00;;;18.70;99.90;;;;;;5036997;28;20464;-95
2023/04/07 12:37:30;;;;;;;0.10;0.00;;;18.60;96.00;;;;;;5037452;28;20592;-95
2023/04/07 12:39:56;;;;;;;0.10;0.00;;;18.30;96.10;;;;;;5043027;28;20531;-96
2023/04/07 12:42:21;;;;;;;0.10;0.00;;;17.40;92.40;;;;;;5047478;28;20458;-94
2023/04/07 12:44:47;;;;;;;0.10;0.00;;;17.20;92.00;;;;;;5035534;28;20252;-96
2023/04/07 12:47:13;;;;;;;0.10;0.00;;;17.30;81.60;;;;;;5028571;28;20192;-92
2023/04/07 12:49:38;;;;;;;0.10;0.00;;;18.20;92.30;;;;;;5031504;28;20190;-93
2023/04/07 12:52:05;;;;;;;0.10;0.00;;;18.50;92.40;;;;;;5028155;28;20253;-93
2023/04/07 12:54:31;;;;;;;0.10;0.00;;;19.00;93.40;;;;;;5045896;28;20228;-93
2023/04/07 12:56:57;;;;;;;0.10;0.00;;;18.90;89.00;;;;;;5047331;28;20438;-94